Time;durP1;ratioP1;P1;durP2;ratioP2;P2;SDS_P1;SDS_P2;PMS_P1;PMS_P2;Temp;Humidity;BMP_temperature;BMP_pressure;BME280_temperature;BME280_humidity;BME280_pressure;Samples;Min_cycle;Max_cycle;Signal;HPM_P1;HPM_P2
2022/06/05 00:00:12;;;;;;;4.03;3.63;;;;;;;23.30;56.79;99831.25;5011599;28;20375;-89
2022/06/05 00:02:59;;;;;;;4.20;3.85;;;;;;;23.26;57.17;99832.78;5012150;28;20124;-90
2022/06/05 00:05:24;;;;;;;6.82;3.95;;;;;;;23.23;57.07;99829.44;5028641;28;20044;-90
2022/06/05 00:08:08;;;;;;;4.40;4.00;;;;;;;23.23;56.81;99825.88;5027755;28;20025;-90
2022/06/05 00:10:51;;;;;;;4.07;3.75;;;;;;;23.19;57.27;99820.03;5012374;28;20031;-90
2022/06/05 00:13:23;;;;;;;4.00;3.60;;;;;;;23.20;57.04;99821.69;5027471;28;20018;-90
2022/06/05 00:15:49;;;;;;;4.28;3.88;;;;;;;23.21;57.06;99812.44;5002952;28;20472;-90
2022/06/05 00:18:15;;;;;;;4.53;3.97;;;;;;;23.17;57.55;99799.44;5017469;28;20061;-90
2022/06/05 00:20:44;;;;;;;4.32;3.92;;;;;;;23.18;57.74;99806.59;4999656;28;20476;-89
2022/06/05 00:23:09;;;;;;;4.00;3.60;;;;;;;23.17;57.33;99796.72;5017515;28;20032;-90
2022/06/05 00:25:47;;;;;;;4.57;4.10;;;;;;;23.15;57.01;99799.66;5001129;28;20032;-90
2022/06/05 00:28:22;;;;;;;4.47;4.07;;;;;;;23.13;57.85;99798.22;4999908;28;20324;-87
2022/06/05 00:30:59;;;;;;;4.38;3.97;;;;;;;23.11;57.55;99793.00;5011729;28;20052;-90
2022/06/05 00:33:33;;;;;;;4.30;3.85;;;;;;;23.15;58.12;99786.03;5010979;28;20029;-89
2022/06/05 00:36:27;;;;;;;4.20;3.85;;;;;;;23.12;57.73;99778.28;5018393;28;20091;-89
2022/06/05 00:39:12;;;;;;;4.20;3.80;;;;;;;23.17;57.71;99789.38;5017247;28;20362;-90
2022/06/05 00:41:53;;;;;;;4.10;3.72;;;;;;;23.16;57.42;99784.13;5027964;28;20060;-89
2022/06/05 00:44:41;;;;;;;4.07;3.78;;;;;;;23.18;57.58;99782.03;5017886;28;20029;-90
2022/06/05 00:47:09;;;;;;;4.07;3.78;;;;;;;23.15;57.95;99785.19;5010631;28;20550;-88
2022/06/05 00:49:39;;;;;;;4.03;3.72;;;;;;;23.14;57.59;99787.09;5010123;28;20046;-90
2022/06/05 00:52:07;;;;;;;3.90;3.67;;;;;;;23.18;58.45;99798.41;5001457;28;20491;-88
2022/06/05 00:54:32;;;;;;;3.95;3.75;;;;;;;23.19;57.67;99805.53;5002556;28;20380;-90
2022/06/05 00:56:57;;;;;;;3.63;3.33;;;;;;;23.21;58.01;99804.25;5000787;28;20033;-89
2022/06/05 00:59:23;;;;;;;3.95;3.65;;;;;;;23.23;57.88;99798.56;5000867;28;20026;-90
2022/06/05 01:01:49;;;;;;;4.22;3.88;;;;;;;23.24;58.39;99790.16;5000763;28;20033;-90
2022/06/05 01:04:15;;;;;;;4.22;3.83;;;;;;;23.13;58.54;99782.69;5042391;28;20044;-89
2022/06/05 01:06:41;;;;;;;4.22;3.83;;;;;;;22.96;58.74;99769.84;5009395;28;20033;-90
2022/06/05 01:09:06;;;;;;;4.18;3.88;;;;;;;22.80;59.28;99747.53;5010602;28;20040;-89
2022/06/05 01:11:38;;;;;;;4.75;4.45;;;;;;;22.77;59.33;99728.84;5009369;28;20035;-90
2022/06/05 01:14:32;;;;;;;4.45;4.07;;;;;;;22.70;59.40;99703.50;5016786;28;20044;-89
2022/06/05 01:16:59;;;;;;;4.50;4.10;;;;;;;22.69;59.76;99693.66;5026050;28;20472;-90
2022/06/05 01:19:30;;;;;;;4.70;4.28;;;;;;;22.60;59.46;99686.81;5009540;28;20045;-89
2022/06/05 01:22:25;;;;;;;4.55;4.15;;;;;;;22.72;59.64;99690.50;5027346;28;20545;-89
2022/06/05 01:25:15;;;;;;;4.82;4.13;;;;;;;22.79;58.79;99683.09;5027802;28;20041;-90
2022/06/05 01:27:44;;;;;;;4.38;4.07;;;;;;;22.86;59.12;99677.63;5016409;28;20030;-89
2022/06/05 01:30:21;;;;;;;4.70;4.30;;;;;;;22.90;58.76;99670.66;5014978;28;20041;-90
2022/06/05 01:32:53;;;;;;;4.25;3.80;;;;;;;22.95;59.03;99667.25;5043165;28;20033;-90
2022/06/05 01:35:39;;;;;;;4.72;4.32;;;;;;;22.85;59.28;99663.16;5015222;28;20061;-89
2022/06/05 01:38:48;;;;;;;4.35;4.05;;;;;;;22.86;58.40;99659.34;5008353;28;20037;-90
2022/06/05 01:41:32;;;;;;;4.30;4.00;;;;;;;22.91;59.27;99661.41;5025710;28;20041;-89
2022/06/05 01:43:59;;;;;;;4.32;4.03;;;;;;;22.91;58.89;99656.78;5017715;28;20113;-89
2022/06/05 01:46:33;;;;;;;5.20;4.47;;;;;;;22.92;58.51;99654.91;5017586;28;20031;-88
2022/06/05 01:49:05;;;;;;;4.65;4.35;;;;;;;22.88;59.05;99651.78;4999416;28;20053;-89
2022/06/05 01:51:40;;;;;;;4.80;4.50;;;;;;;22.78;58.92;99639.69;5026289;28;20613;-88
2022/06/05 01:54:10;;;;;;;4.65;4.25;;;;;;;22.76;59.60;99644.53;5009956;28;20029;-89
2022/06/05 01:56:48;;;;;;;4.90;4.50;;;;;;;22.66;59.15;99634.13;4998482;28;20801;-89
2022/06/05 01:59:25;;;;;;;4.70;4.30;;;;;;;22.67;59.38;99638.50;5033387;28;20025;-89
2022/06/05 02:01:53;;;;;;;4.60;4.20;;;;;;;22.74;58.96;99631.13;5000607;28;20033;-90
2022/06/05 02:04:26;;;;;;;5.30;4.80;;;;;;;22.69;58.86;99635.56;5009184;28;20030;-89
2022/06/05 02:07:02;;;;;;;5.07;4.68;;;;;;;22.71;59.36;99630.75;5008253;28;20091;-89
2022/06/05 02:09:35;;;;;;;5.60;5.10;;;;;;;22.66;59.38;99616.94;5008298;28;20030;-90
2022/06/05 02:12:05;;;;;;;5.72;5.20;;;;;;;22.57;59.61;99619.13;4998418;28;20513;-88
2022/06/05 02:14:30;;;;;;;5.55;5.05;;;;;;;22.52;59.35;99605.31;5024575;28;20048;-90
2022/06/05 02:16:57;;;;;;;5.50;5.00;;;;;;;22.54;60.09;99597.75;5007791;28;20464;-90
2022/06/05 02:19:22;;;;;;;5.80;5.15;;;;;;;22.55;60.15;99589.34;5009295;28;20017;-90
2022/06/05 02:21:48;;;;;;;6.80;5.00;;;;;;;22.57;59.68;99583.69;5024027;28;20060;-89
2022/06/05 02:24:15;;;;;;;5.20;4.78;;;;;;;22.55;60.03;99583.06;5007315;28;20546;-90
2022/06/05 02:26:41;;;;;;;4.95;4.55;;;;;;;22.55;59.35;99577.63;5008107;28;20249;-89
2022/06/05 02:29:23;;;;;;;5.32;4.90;;;;;;;22.55;59.71;99561.25;5008585;28;20395;-90
2022/06/05 02:32:04;;;;;;;5.72;5.18;;;;;;;22.58;60.31;99563.53;5017869;28;20118;-90
2022/06/05 02:34:47;;;;;;;5.60;5.07;;;;;;;22.59;59.36;99552.41;5014037;28;20939;-90
2022/06/05 02:37:17;;;;;;;5.68;5.18;;;;;;;22.62;59.28;99551.13;5028975;28;20029;-90
2022/06/05 02:39:47;;;;;;;6.20;5.60;;;;;;;22.56;59.49;99546.56;4999610;28;20089;-89
2022/06/05 02:42:33;;;;;;;5.80;5.20;;;;;;;22.45;58.98;99547.31;5034980;28;20030;-89
2022/06/05 02:45:28;;;;;;;5.65;5.15;;;;;;;22.43;59.46;99542.09;5014537;28;20370;-90
2022/06/05 02:48:05;;;;;;;5.88;5.22;;;;;;;22.42;59.92;99537.69;5014189;28;20400;-89
2022/06/05 02:50:39;;;;;;;5.85;5.30;;;;;;;22.43;59.68;99539.38;5007718;28;20163;-89
2022/06/05 02:53:07;;;;;;;5.97;5.45;;;;;;;22.49;59.73;99537.63;5024576;28;20114;-89
2022/06/05 02:55:32;;;;;;;5.38;4.88;;;;;;;22.38;59.23;99541.09;5008112;28;20059;-88
2022/06/05 02:57:58;;;;;;;6.13;5.20;;;;;;;22.41;59.88;99544.22;4996766;28;20038;-90
2022/06/05 03:00:26;;;;;;;5.43;4.93;;;;;;;22.39;60.11;99532.72;5000023;28;20025;-90
2022/06/05 03:05:38;;;;;;;5.20;4.80;;;;;;;22.38;59.81;99527.47;5015981;28;20036;-87
2022/06/05 03:08:04;;;;;;;5.25;4.85;;;;;;;22.35;59.54;99528.75;4999930;28;20049;-88
2022/06/05 03:10:29;;;;;;;6.00;5.40;;;;;;;22.30;60.25;99523.16;4997938;28;20029;-89
2022/06/05 03:12:55;;;;;;;4.60;4.30;;;;;;;22.32;59.62;99525.66;5000463;28;20335;-90
2022/06/05 03:15:20;;;;;;;5.38;4.93;;;;;;;22.36;59.30;99524.97;4998924;28;20034;-89
2022/06/05 03:17:46;;;;;;;4.95;4.55;;;;;;;22.34;60.33;99518.09;4999687;28;20083;-89
2022/06/05 03:20:13;;;;;;;4.95;4.55;;;;;;;22.27;60.41;99515.44;4999255;28;20029;-89
2022/06/05 03:22:39;;;;;;;4.85;4.55;;;;;;;22.21;59.81;99517.13;5007542;28;20479;-90
2022/06/05 03:25:05;;;;;;;5.18;4.78;;;;;;;22.16;60.19;99519.69;5000296;28;20031;-89
2022/06/05 03:27:31;;;;;;;4.80;4.50;;;;;;;22.06;60.76;99522.09;4997089;28;20021;-89
2022/06/05 03:29:57;;;;;;;5.00;4.60;;;;;;;22.14;60.80;99527.25;4998047;28;20036;-89
2022/06/05 03:32:23;;;;;;;5.30;4.80;;;;;;;22.19;60.38;99523.88;5004940;28;20124;-89
2022/06/05 03:34:48;;;;;;;5.18;4.75;;;;;;;22.23;60.24;99525.94;5008042;28;20040;-89
2022/06/05 03:37:14;;;;;;;5.30;4.80;;;;;;;22.17;60.23;99524.09;5007841;28;20033;-90
2022/06/05 03:39:39;;;;;;;5.05;4.65;;;;;;;22.17;60.61;99521.38;5007719;28;20030;-90
2022/06/05 03:42:06;;;;;;;4.90;4.50;;;;;;;22.20;60.57;99518.19;5023342;28;20083;-90
2022/06/05 03:44:35;;;;;;;4.90;4.45;;;;;;;22.14;60.47;99519.09;5024343;28;20026;-88
2022/06/05 03:47:00;;;;;;;4.80;4.35;;;;;;;22.12;60.22;99515.75;5023338;28;20029;-90
2022/06/05 03:49:26;;;;;;;4.80;4.40;;;;;;;22.12;60.36;99521.22;5007338;28;20049;-90
2022/06/05 03:51:51;;;;;;;4.53;4.22;;;;;;;22.13;60.21;99520.16;4996763;28;20022;-90
2022/06/05 03:54:16;;;;;;;5.05;4.63;;;;;;;22.12;60.18;99523.94;4997800;28;20034;-90
2022/06/05 03:56:42;;;;;;;5.07;4.60;;;;;;;22.08;60.17;99517.25;4999846;28;20030;-89
2022/06/05 03:59:07;;;;;;;5.10;4.70;;;;;;;22.07;60.32;99514.75;5024672;28;20021;-89
2022/06/05 04:01:32;;;;;;;4.85;4.45;;;;;;;21.94;60.75;99511.06;5008453;28;20053;-89
2022/06/05 04:03:58;;;;;;;4.95;4.65;;;;;;;22.04;61.00;99513.31;5012065;28;20120;-89
2022/06/05 04:06:29;;;;;;;4.85;4.45;;;;;;;22.03;61.10;99506.22;5011594;28;20108;-89
2022/06/05 04:08:56;;;;;;;4.55;4.20;;;;;;;21.94;61.10;99507.53;5003887;28;20033;-89
2022/06/05 04:11:21;;;;;;;5.20;4.80;;;;;;;21.87;61.19;99509.47;5011821;28;20124;-90
2022/06/05 04:13:47;;;;;;;5.35;4.82;;;;;;;21.82;61.28;99510.13;5011937;28;20172;-90
2022/06/05 04:16:21;;;;;;;4.82;4.53;;;;;;;21.80;62.13;99509.53;5011659;28;20473;-90
2022/06/05 04:18:47;;;;;;;5.60;5.03;;;;;;;21.73;62.01;99503.28;5002822;28;20332;-90
2022/06/05 04:21:15;;;;;;;5.30;4.90;;;;;;;21.69;61.52;99511.03;5016918;28;20037;-90
2022/06/05 04:23:41;;;;;;;5.40;4.95;;;;;;;21.80;61.62;99519.59;5011312;28;20038;-90
2022/06/05 04:26:09;;;;;;;6.72;5.25;;;;;;;21.90;61.26;99538.97;5011238;28;20045;-90
2022/06/05 04:28:35;;;;;;;5.30;4.80;;;;;;;21.90;61.08;99547.13;5012242;28;20037;-90
2022/06/05 04:31:00;;;;;;;5.32;4.93;;;;;;;21.88;62.13;99547.38;5028215;28;20029;-87
2022/06/05 04:33:26;;;;;;;5.30;4.85;;;;;;;21.93;61.79;99550.25;5011182;28;20036;-89
2022/06/05 04:35:51;;;;;;;4.95;4.55;;;;;;;21.92;61.41;99553.19;5028481;28;20480;-90
2022/06/05 04:38:16;;;;;;;5.43;5.03;;;;;;;21.98;61.17;99561.31;5010574;28;20365;-89
2022/06/05 04:40:42;;;;;;;4.82;4.53;;;;;;;22.01;61.04;99562.75;5028106;28;20029;-89
2022/06/05 04:43:08;;;;;;;5.30;4.90;;;;;;;21.90;61.48;99564.31;5000363;28;20029;-89
2022/06/05 04:45:33;;;;;;;5.30;4.90;;;;;;;21.93;61.32;99568.47;5010710;28;20084;-90
2022/06/05 04:47:59;;;;;;;5.32;4.82;;;;;;;21.93;61.72;99568.47;5011405;28;20510;-89
2022/06/05 04:50:24;;;;;;;5.22;4.75;;;;;;;21.95;61.61;99569.09;5011527;28;20040;-89
2022/06/05 04:52:50;;;;;;;5.85;5.25;;;;;;;21.94;61.09;99572.88;5010086;28;20021;-86
2022/06/05 04:55:15;;;;;;;6.10;5.60;;;;;;;21.92;61.62;99567.66;5010535;28;20084;-89
2022/06/05 04:57:43;;;;;;;7.20;6.50;;;;;;;21.97;61.89;99561.53;5011160;28;20029;-89
2022/06/05 05:00:09;;;;;;;7.30;6.55;;;;;;;21.95;61.84;99555.47;5027817;28;20025;-89
2022/06/05 05:02:34;;;;;;;6.80;6.15;;;;;;;21.90;61.51;99561.59;5018177;28;20042;-90
2022/06/05 05:05:00;;;;;;;6.82;6.07;;;;;;;21.85;61.47;99553.25;5006468;28;20149;-87
2022/06/05 05:07:25;;;;;;;5.97;5.38;;;;;;;21.94;61.79;99548.38;5010258;28;20124;-90
2022/06/05 05:09:50;;;;;;;6.18;5.68;;;;;;;21.86;61.51;99541.31;5010373;28;20061;-90
2022/06/05 05:12:16;;;;;;;5.63;5.13;;;;;;;21.84;61.91;99548.88;5011472;28;20067;-90
2022/06/05 05:14:41;;;;;;;6.43;5.57;;;;;;;21.75;61.79;99541.16;5011195;28;20022;-90
2022/06/05 05:17:07;;;;;;;5.80;5.13;;;;;;;21.80;62.37;99542.19;5027687;28;20056;-88
2022/06/05 05:19:32;;;;;;;5.60;5.20;;;;;;;21.77;61.89;99536.34;5028409;28;20021;-90
2022/06/05 05:21:58;;;;;;;5.97;5.47;;;;;;;21.73;62.68;99526.94;5010062;28;20025;-89
2022/06/05 05:24:23;;;;;;;6.20;4.90;;;;;;;21.75;62.22;99531.09;5001728;28;20090;-89
2022/06/05 05:26:49;;;;;;;5.30;4.82;;;;;;;21.79;62.22;99523.34;5001112;28;20463;-89
2022/06/05 05:29:14;;;;;;;6.60;5.63;;;;;;;21.77;62.47;99531.75;4998986;28;20056;-88
2022/06/05 05:31:41;;;;;;;6.07;5.57;;;;;;;21.75;62.92;99533.00;5000554;28;20034;-89
2022/06/05 05:34:07;;;;;;;6.13;5.53;;;;;;;21.77;63.07;99525.47;5006191;28;20040;-90
2022/06/05 05:36:33;;;;;;;6.25;5.35;;;;;;;21.75;62.91;99530.28;5000158;28;20108;-88
2022/06/05 05:44:28;;;;;;;5.95;5.35;;;;;;;21.86;61.93;99519.53;5024871;28;20394;-89
2022/06/05 05:46:54;;;;;;;6.00;5.50;;;;;;;21.82;62.18;99521.03;4999973;28;20018;-88
2022/06/05 05:49:19;;;;;;;5.43;5.03;;;;;;;21.83;62.82;99513.69;5006316;28;20080;-89
2022/06/05 05:51:45;;;;;;;5.65;5.15;;;;;;;21.81;63.12;99510.34;4999481;28;20475;-89
2022/06/05 05:54:11;;;;;;;5.72;5.00;;;;;;;21.81;62.77;99507.63;4996755;28;20029;-89
2022/06/05 05:56:37;;;;;;;5.80;5.25;;;;;;;21.79;62.35;99507.03;5007220;28;20039;-89
2022/06/05 05:59:02;;;;;;;5.43;5.03;;;;;;;21.84;62.72;99493.56;5008139;28;20064;-88
2022/06/05 06:01:28;;;;;;;5.82;5.32;;;;;;;21.77;63.24;99496.34;5007940;28;20045;-88
2022/06/05 06:03:53;;;;;;;5.20;4.90;;;;;;;21.76;63.53;99485.66;5006739;28;20029;-90
2022/06/05 06:06:23;;;;;;;5.38;4.88;;;;;;;21.82;62.94;99490.25;4997945;28;20037;-89
2022/06/05 06:08:48;;;;;;;5.55;5.05;;;;;;;21.72;62.88;99482.53;5007069;28;20087;-89
2022/06/05 06:11:15;;;;;;;5.50;5.10;;;;;;;21.76;63.16;99480.22;5001138;28;20072;-89
2022/06/05 06:13:40;;;;;;;5.47;4.97;;;;;;;21.81;63.11;99473.06;5017717;28;20778;-89
2022/06/05 06:16:07;;;;;;;5.60;5.20;;;;;;;21.75;63.02;99467.66;5000875;28;20038;-89
2022/06/05 06:18:32;;;;;;;5.40;4.80;;;;;;;21.74;64.01;99471.44;5001618;28;20468;-89
2022/06/05 06:20:57;;;;;;;5.75;5.28;;;;;;;21.75;63.89;99473.94;5011108;28;20048;-87
2022/06/05 06:23:23;;;;;;;6.05;5.30;;;;;;;21.81;63.64;99472.25;5004376;28;20021;-88
2022/06/05 06:25:49;;;;;;;5.68;5.18;;;;;;;21.81;63.38;99475.78;5002043;28;20573;-88
2022/06/05 06:28:14;;;;;;;5.85;5.35;;;;;;;21.82;63.84;99472.03;5009259;28;20033;-88
2022/06/05 06:30:40;;;;;;;5.75;5.25;;;;;;;21.74;63.74;99464.09;5008540;28;20131;-88
2022/06/05 06:33:06;;;;;;;5.30;4.95;;;;;;;21.80;64.03;99462.41;5022606;28;20037;-86
2022/06/05 06:35:34;;;;;;;5.57;5.07;;;;;;;21.77;63.74;99455.53;5012203;28;20025;-88
2022/06/05 06:37:59;;;;;;;5.55;5.00;;;;;;;21.75;64.18;99459.50;5028719;28;20029;-89
2022/06/05 06:40:26;;;;;;;5.75;5.28;;;;;;;21.84;63.25;99459.00;5012207;28;20034;-89
2022/06/05 06:42:54;;;;;;;5.35;4.95;;;;;;;21.89;64.11;99458.34;5012360;28;20034;-88
2022/06/05 06:45:19;;;;;;;6.07;5.25;;;;;;;21.93;63.87;99454.13;5009599;28;20471;-89
2022/06/05 06:47:45;;;;;;;5.93;5.10;;;;;;;21.95;64.23;99449.28;5009198;28;20661;-88
2022/06/05 06:50:10;;;;;;;5.20;4.80;;;;;;;21.96;64.13;99445.50;5001418;28;20054;-89
2022/06/05 06:52:37;;;;;;;5.57;5.18;;;;;;;21.95;63.92;99450.09;4999556;28;20022;-89
2022/06/05 06:55:03;;;;;;;5.60;5.10;;;;;;;21.91;63.61;99448.91;5005143;28;20030;-89
2022/06/05 06:57:28;;;;;;;5.45;4.95;;;;;;;21.93;63.70;99438.59;5001816;28;20087;-89
2022/06/05 06:59:55;;;;;;;5.18;4.78;;;;;;;21.92;64.14;99449.72;5001967;28;20037;-89
2022/06/05 07:02:20;;;;;;;5.45;5.05;;;;;;;22.02;64.50;99449.22;5003952;28;20543;-88
2022/06/05 07:04:45;;;;;;;5.50;5.00;;;;;;;22.00;64.23;99447.53;5026665;28;20177;-89
2022/06/05 07:07:11;;;;;;;5.25;4.85;;;;;;;22.05;64.27;99456.97;5013026;28;20083;-89
2022/06/05 07:09:36;;;;;;;5.30;4.90;;;;;;;22.06;63.66;99450.44;5013050;28;20083;-88
2022/06/05 07:12:01;;;;;;;5.35;4.95;;;;;;;22.07;64.54;99446.66;5012571;28;20120;-88
2022/06/05 07:14:27;;;;;;;6.25;5.63;;;;;;;22.06;64.81;99440.38;5012723;28;20105;-89
2022/06/05 07:16:53;;;;;;;5.78;5.20;;;;;;;22.07;65.05;99442.06;5006796;28;20026;-88
2022/06/05 07:19:19;;;;;;;5.82;5.32;;;;;;;22.09;65.30;99436.38;5013218;28;20490;-87
2022/06/05 07:21:44;;;;;;;5.95;5.38;;;;;;;22.10;65.72;99436.16;5005520;28;20029;-89
2022/06/05 07:24:10;;;;;;;5.97;5.38;;;;;;;22.09;65.83;99441.84;5012481;28;20419;-88
2022/06/05 07:26:35;;;;;;;6.57;5.65;;;;;;;22.07;66.54;99436.59;5006269;28;20046;-89
2022/06/05 07:29:02;;;;;;;5.65;5.15;;;;;;;22.08;66.78;99440.16;5007667;28;20124;-89
2022/06/05 07:31:29;;;;;;;6.47;5.90;;;;;;;22.11;67.20;99440.53;5012792;28;20459;-87
2022/06/05 07:33:54;;;;;;;6.18;5.68;;;;;;;22.09;67.38;99444.56;5012961;28;20399;-88
2022/06/05 07:36:25;;;;;;;6.03;5.53;;;;;;;22.05;67.28;99441.44;5013651;28;20022;-87
2022/06/05 07:38:50;;;;;;;6.13;5.63;;;;;;;22.03;67.88;99442.69;5017151;28;20080;-89
2022/06/05 07:41:26;;;;;;;6.30;5.80;;;;;;;22.03;67.23;99439.97;5031774;28;20029;-87
2022/06/05 07:43:52;;;;;;;6.03;5.53;;;;;;;22.10;67.86;99435.31;5026795;28;20033;-88
2022/06/05 07:46:18;;;;;;;6.00;5.55;;;;;;;22.15;68.02;99438.19;5031111;28;20029;-87
2022/06/05 07:48:43;;;;;;;6.22;5.68;;;;;;;22.18;67.54;99443.19;5006578;28;20053;-87
2022/06/05 07:56:42;;;;;;;6.03;5.60;;;;;;;22.23;67.62;99438.75;5032738;28;20040;-87
2022/06/05 07:59:07;;;;;;;6.68;6.13;;;;;;;22.23;67.48;99437.91;5018148;28;20037;-95
2022/06/05 08:01:34;;;;;;;5.75;5.25;;;;;;;22.25;68.61;99433.94;5020127;28;20032;-94
2022/06/05 08:03:59;;;;;;;5.50;5.05;;;;;;;22.26;68.75;99432.03;5019392;28;20510;-92
2022/06/05 08:06:25;;;;;;;6.20;5.70;;;;;;;22.32;67.66;99428.41;5013829;28;20116;-92
2022/06/05 08:08:50;;;;;;;6.25;5.85;;;;;;;22.26;68.24;99432.88;5008725;28;20025;-91
2022/06/05 08:11:15;;;;;;;7.85;5.80;;;;;;;22.25;67.76;99431.19;5041516;28;20029;-96
2022/06/05 08:13:41;;;;;;;6.90;6.30;;;;;;;22.24;68.95;99436.88;5027389;28;20049;-95
2022/06/05 08:16:07;;;;;;;6.20;5.70;;;;;;;22.24;68.55;99432.25;5026882;28;20026;-96
2022/06/05 08:18:33;;;;;;;6.10;5.50;;;;;;;22.22;69.34;99431.63;5041346;28;20020;-96
2022/06/05 08:20:59;;;;;;;6.55;6.05;;;;;;;22.21;68.69;99431.84;5076287;23;20045;31
2022/06/05 08:23:25;;;;;;;6.47;5.88;;;;;;;22.17;70.16;99436.09;5021328;28;20116;-88
2022/06/05 08:31:40;;;;;;;7.50;6.90;;;;;;;22.12;72.23;99444.94;1357946;26;20053;-87
2022/06/05 08:34:06;;;;;;;7.38;6.82;;;;;;;22.09;73.71;99442.66;5007240;28;20037;-95
2022/06/05 08:36:32;;;;;;;7.75;6.90;;;;;;;22.05;73.77;99443.34;4999977;28;20038;-95
2022/06/05 08:42:03;;;;;;;7.45;6.75;;;;;;;22.10;75.49;99441.59;5016607;28;20033;-91
2022/06/05 08:44:39;;;;;;;7.43;6.90;;;;;;;22.04;75.80;99442.50;5034921;28;20061;-91
2022/06/05 08:47:23;;;;;;;7.57;6.97;;;;;;;22.02;76.72;99449.22;5016087;28;20064;-91
2022/06/05 08:50:16;;;;;;;7.30;6.80;;;;;;;22.01;76.60;99440.19;5000850;28;20033;-90
2022/06/05 08:52:49;;;;;;;7.97;7.30;;;;;;;21.97;78.14;99439.00;5034498;28;20506;-90
2022/06/05 08:55:34;;;;;;;7.80;7.20;;;;;;;22.03;78.22;99431.81;5016680;28;20041;-90
2022/06/05 08:58:04;;;;;;;7.88;7.10;;;;;;;21.95;78.61;99441.94;5014260;28;20029;-90
2022/06/05 09:00:37;;;;;;;7.65;6.97;;;;;;;21.90;78.19;99428.16;5038301;28;20037;-89
2022/06/05 09:03:07;;;;;;;8.65;7.10;;;;;;;21.89;78.49;99431.13;4998877;28;20033;-90
2022/06/05 09:05:43;;;;;;;8.10;7.40;;;;;;;21.89;78.03;99431.94;5031942;28;20025;-90
2022/06/05 09:08:14;;;;;;;8.35;7.57;;;;;;;21.81;79.03;99431.41;5014737;28;20022;-90
2022/06/05 09:17:25;;;;;;;8.13;7.40;;;;;;;21.84;79.19;99423.63;5500819;23;20072;-93
2022/06/05 09:19:59;;;;;;;8.20;7.40;;;;;;;21.87;79.91;99428.63;5019127;28;20033;-93
2022/06/05 09:22:45;;;;;;;7.55;6.85;;;;;;;21.95;79.72;99435.66;5019997;28;20041;-92
2022/06/05 09:25:39;;;;;;;8.38;7.25;;;;;;;21.97;79.69;99439.81;5018532;28;20052;-93
2022/06/05 09:28:18;;;;;;;7.32;6.72;;;;;;;22.00;79.24;99449.44;5019523;28;20076;-93
2022/06/05 09:31:17;;;;;;;8.13;7.45;;;;;;;21.97;79.42;99452.59;5034601;28;20038;-93
2022/06/05 09:33:43;;;;;;;8.60;7.50;;;;;;;21.98;79.40;99457.81;5018323;28;20045;-92
2022/06/05 09:36:13;;;;;;;8.23;7.45;;;;;;;22.00;80.08;99452.16;5018009;28;20060;-93
2022/06/05 09:38:47;;;;;;;9.10;8.30;;;;;;;21.98;79.37;99443.38;5017946;28;20176;-92
2022/06/05 09:41:29;;;;;;;8.48;7.78;;;;;;;21.94;80.30;99444.88;5035515;28;20033;-93
2022/06/05 09:44:21;;;;;;;8.55;7.85;;;;;;;21.93;80.89;99443.22;5018206;28;20025;-92
2022/06/05 09:47:00;;;;;;;8.60;7.80;;;;;;;21.96;80.49;99437.31;5017895;28;20053;-94
2022/06/05 09:49:31;;;;;;;;;;;;;;;22.00;81.52;99441.25;5018142;28;20459;-93
2022/06/05 09:52:00;;;;;;;8.60;7.93;;;;;;;21.99;80.41;99439.59;5034393;28;19952;-93
2022/06/05 09:54:32;;;;;;;9.30;8.55;;;;;;;22.00;80.76;99433.94;5014162;28;20490;-96
2022/06/05 10:00:26;;;;;;;8.82;8.13;;;;;;;22.00;80.53;99424.91;5014019;28;20029;-95
2022/06/05 10:02:57;;;;;;;9.90;9.10;;;;;;;21.86;80.58;99418.78;4997881;28;20080;-96
2022/06/05 10:05:27;;;;;;;9.05;8.35;;;;;;;21.93;80.59;99418.72;4997714;28;20482;-96
2022/06/05 10:08:03;;;;;;;10.00;9.10;;;;;;;21.89;80.44;99409.34;5030457;28;20028;-95
2022/06/05 10:10:35;;;;;;;8.75;8.10;;;;;;;21.92;80.35;99406.16;4998306;28;20464;-96
2022/06/05 10:13:37;;;;;;;8.77;8.07;;;;;;;21.92;80.00;99407.00;4997795;28;20034;-96
2022/06/05 10:16:13;;;;;;;9.23;8.43;;;;;;;21.93;80.79;99391.47;4997551;28;20030;-96
2022/06/05 10:19:04;;;;;;;9.70;8.80;;;;;;;21.82;80.71;99384.06;5030257;28;20042;-96
2022/06/05 10:21:35;;;;;;;9.05;8.32;;;;;;;21.92;80.34;99381.66;4997543;28;20022;-96
2022/06/05 10:24:03;;;;;;;9.60;8.90;;;;;;;21.96;80.19;99385.59;4981246;28;20029;-96
2022/06/05 10:26:33;;;;;;;9.85;8.95;;;;;;;22.03;81.09;99386.38;4997361;28;20057;-96
2022/06/05 10:29:22;;;;;;;9.48;8.75;;;;;;;22.06;80.53;99385.91;4997142;28;20034;-96
2022/06/05 10:32:03;;;;;;;9.25;8.55;;;;;;;22.11;80.63;99377.91;4981178;28;20041;-94
2022/06/05 10:34:50;;;;;;;9.20;8.50;;;;;;;22.14;80.32;99368.44;4997625;28;20017;-94
2022/06/05 10:37:24;;;;;;;9.15;8.45;;;;;;;22.20;80.34;99368.34;5013819;28;20030;-96
2022/06/05 10:39:49;;;;;;;9.80;8.90;;;;;;;22.31;80.86;99369.50;4998076;28;20029;-96
2022/06/05 10:42:32;;;;;;;9.73;8.93;;;;;;;22.37;80.95;99367.75;4997481;28;20022;-96
2022/06/05 10:45:22;;;;;;;9.65;8.95;;;;;;;22.41;81.03;99367.06;5030106;28;20137;-95
2022/06/05 10:47:56;;;;;;;9.93;9.13;;;;;;;22.46;80.63;99369.13;5030729;28;20037;-94
2022/06/05 10:50:26;;;;;;;9.55;8.80;;;;;;;22.47;80.80;99357.97;4997239;28;20073;-96
2022/06/05 10:53:01;;;;;;;9.95;9.23;;;;;;;22.46;80.13;99352.75;4980811;28;20033;-96
2022/06/05 10:55:45;;;;;;;8.82;8.13;;;;;;;22.45;81.07;99348.38;4996877;28;20026;-92
2022/06/05 10:58:23;;;;;;;8.60;7.90;;;;;;;22.44;80.46;99344.81;4996848;28;20029;-94
2022/06/05 11:01:02;;;;;;;8.80;8.13;;;;;;;22.43;80.14;99334.13;4997452;28;20053;-95
2022/06/05 11:03:42;;;;;;;8.70;8.02;;;;;;;22.42;81.41;99332.47;5029421;28;20038;-94
2022/06/05 11:06:40;;;;;;;8.27;7.68;;;;;;;22.44;81.54;99323.00;4997026;28;20054;-94
2022/06/05 11:09:27;;;;;;;7.65;7.00;;;;;;;22.49;81.86;99319.59;4996411;28;20061;-91
2022/06/05 11:15:36;;;;;;;5.70;5.20;;;;;;;22.61;79.77;99313.13;5020878;28;20045;-95
2022/06/05 11:18:29;;;;;;;7.03;6.53;;;;;;;22.63;81.48;99302.81;5035856;28;20480;-92
2022/06/05 11:20:59;;;;;;;6.00;5.60;;;;;;;22.65;80.09;99297.13;5003143;28;20052;-94
2022/06/05 11:23:35;;;;;;;6.38;5.90;;;;;;;22.65;80.01;99286.22;5006707;28;20026;-95
2022/06/05 11:26:13;;;;;;;5.60;5.20;;;;;;;22.65;79.32;99278.03;5006464;28;20021;-90
2022/06/05 11:29:03;;;;;;;5.10;4.68;;;;;;;22.69;79.38;99272.94;5006472;28;20033;-95
2022/06/05 11:31:54;;;;;;;6.95;6.40;;;;;;;22.75;79.89;99269.31;5022683;28;20033;-91
2022/06/05 11:34:56;;;;;;;6.57;6.05;;;;;;;22.80;79.20;99267.59;5012183;28;20041;-89
2022/06/05 11:37:42;;;;;;;5.35;4.95;;;;;;;22.87;78.91;99257.41;5009025;28;20025;-89
2022/06/05 11:40:20;;;;;;;6.35;5.95;;;;;;;22.91;78.78;99258.59;5012514;28;20084;-88
2022/06/05 11:43:13;;;;;;;5.90;5.50;;;;;;;22.92;77.47;99262.16;5014753;28;20033;-88
2022/06/05 11:46:02;;;;;;;4.95;4.55;;;;;;;22.96;77.34;99259.78;5027531;28;20200;-89
2022/06/05 11:48:52;;;;;;;4.97;4.57;;;;;;;22.97;76.86;99254.09;5011832;28;20052;-88
2022/06/05 11:51:36;;;;;;;5.45;4.97;;;;;;;22.98;76.42;99246.72;5011222;28;20292;-88
2022/06/05 11:54:07;;;;;;;5.30;4.80;;;;;;;22.98;75.31;99261.19;4996210;28;20484;-88
2022/06/05 11:56:45;;;;;;;5.20;4.80;;;;;;;22.97;75.90;99250.53;5011811;28;20108;-88
2022/06/05 11:59:25;;;;;;;5.20;4.80;;;;;;;22.93;74.98;99242.00;5012205;28;20026;-88
2022/06/05 12:01:55;;;;;;;6.00;4.90;;;;;;;22.93;75.13;99247.44;5002043;28;20041;-88
2022/06/05 12:04:42;;;;;;;4.25;3.88;;;;;;;22.91;74.77;99238.66;4995231;28;20044;-88
2022/06/05 12:07:12;;;;;;;4.55;3.95;;;;;;;22.88;74.36;99239.13;5030350;28;20064;-88
2022/06/05 12:09:48;;;;;;;4.85;4.50;;;;;;;22.86;74.65;99238.53;5011881;28;20040;-88
2022/06/05 12:12:20;;;;;;;5.13;4.60;;;;;;;22.84;74.90;99235.22;5011717;28;20163;-88
2022/06/05 12:15:06;;;;;;;4.57;4.22;;;;;;;22.84;75.08;99227.03;5028105;28;20022;-88
2022/06/05 12:17:39;;;;;;;6.05;5.55;;;;;;;22.78;75.69;99226.06;5001119;28;20673;-87
2022/06/05 12:20:27;;;;;;;5.70;5.20;;;;;;;22.75;75.88;99217.50;5011549;28;20128;-87
2022/06/05 12:23:08;;;;;;;6.15;5.57;;;;;;;22.74;75.37;99213.97;5008902;28;20056;-93
2022/06/05 12:25:44;;;;;;;5.80;5.40;;;;;;;22.71;75.60;99211.72;5024641;28;20029;-87
2022/06/05 12:28:15;;;;;;;5.65;5.25;;;;;;;22.71;74.99;99202.69;5006353;28;20034;-87
2022/06/05 12:30:49;;;;;;;6.00;5.50;;;;;;;22.69;74.79;99205.63;5007086;28;20796;-87